Hauptseite
METAR-TAF:

METAR-TAF

Flughäfen :

Nikola-Tesla-Flughafen Belgrad

Belgrad, Serbien

Breite: 44-49N, Länge: 020-17E, Höhe: 96 m

Beobachtung

Neuester Wetterbericht von vor 28 Minuten, um 03:30 UTC
Wind 3 kt aus West/Nordwest
Temperatur 2°C
Luftfeuchtigkeit 87%
Luftdruck 1027 hPa
Sichtweite 10 km oder mehr
keine Wolken unter 1500 m und keine Kumulonimbus oder Gewitterwolken

METAR: LYBE 160330Z 30003KT CAVOK 02/00 Q1027 NOSIG

Zeit: 04:58 (03:58 UTC)

Prognose

Neuester Wetterbericht von vor 4 Stunden und 58 Minuten, um 23:00 UTC
Gültige Prognose vom 16 um 00 UTC bis 16 um 24 UTC
Wind 5 kt aus Nordwest
Sichtweite 10 km oder mehr
keine Wolken unter 1500 m und keine Kumulonimbus oder Gewitterwolken
Zeitweise
vom 16 um 04 UTC bis 16 um 07 UTC
Sichtweite: 2000 m
feuchter Dunst

TAF: LYBE 152300Z 1600/1624 32005KT CAVOK TX11/1612Z TN02/1605Z TEMPO 1604/1607 2000 BR

Wetterbeobachtungen und Prognosen von mehr als 4000 Flughäfen (METAR und TAF Bericht).

Die verfügbaren Stationen werden durch gelbe und rote Markierungen auf der Karte dargestellt.

Führen Sie die Maus auf sie, um den Namen der Station zu sehen.

Darauf klicken, um die Beobachtung von Wetterbeobachtungen und Prognosen zu sehen.

Um die Karte zu ändern : klicken Sie auf den grünen Tasten mit einem schwarzen Kreuz Zum Vergrößern, auf den grünen Button mit einem Gedankenstrich zu verkleinern, oder auf die grünen Pfeile für benachbarte Karten.


METAR-TAF: